sensor_id;sensor_type;location;lat;lon;timestamp;temperature;humidity
22471;DHT22;11402;51.374;6.594;2023-06-05T00:01:27;15.70;99.90
22471;DHT22;11402;51.374;6.594;2023-06-05T00:03:53;15.60;99.90
22471;DHT22;11402;51.374;6.594;2023-06-05T00:06:18;15.50;99.90
22471;DHT22;11402;51.374;6.594;2023-06-05T00:08:44;15.40;99.90
22471;DHT22;11402;51.374;6.594;2023-06-05T00:11:10;15.40;99.90
22471;DHT22;11402;51.374;6.594;2023-06-05T00:13:35;15.40;99.90
22471;DHT22;11402;51.374;6.594;2023-06-05T00:16:01;15.40;99.90
22471;DHT22;11402;51.374;6.594;2023-06-05T00:18:29;15.40;99.90
22471;DHT22;11402;51.374;6.594;2023-06-05T00:20:55;15.40;99.90
22471;DHT22;11402;51.374;6.594;2023-06-05T00:23:21;15.40;99.90
22471;DHT22;11402;51.374;6.594;2023-06-05T00:25:46;15.30;99.90
22471;DHT22;11402;51.374;6.594;2023-06-05T00:28:12;15.30;99.90
22471;DHT22;11402;51.374;6.594;2023-06-05T00:30:37;15.20;99.90
22471;DHT22;11402;51.374;6.594;2023-06-05T00:33:04;15.10;99.90
22471;DHT22;11402;51.374;6.594;2023-06-05T00:35:30;15.10;99.90
22471;DHT22;11402;51.374;6.594;2023-06-05T00:37:55;15.10;99.90
22471;DHT22;11402;51.374;6.594;2023-06-05T00:40:21;15.00;99.90
22471;DHT22;11402;51.374;6.594;2023-06-05T00:42:47;15.20;99.90
22471;DHT22;11402;51.374;6.594;2023-06-05T00:45:14;15.10;99.90
22471;DHT22;11402;51.374;6.594;2023-06-05T00:47:40;15.00;99.90
22471;DHT22;11402;51.374;6.594;2023-06-05T00:50:07;14.90;99.90
22471;DHT22;11402;51.374;6.594;2023-06-05T00:52:33;14.90;99.90
22471;DHT22;11402;51.374;6.594;2023-06-05T00:55:01;14.90;99.90
22471;DHT22;11402;51.374;6.594;2023-06-05T00:57:27;14.90;99.90
22471;DHT22;11402;51.374;6.594;2023-06-05T00:59:54;14.80;99.90
22471;DHT22;11402;51.374;6.594;2023-06-05T01:02:19;14.70;99.90
22471;DHT22;11402;51.374;6.594;2023-06-05T01:04:46;14.70;99.90
22471;DHT22;11402;51.374;6.594;2023-06-05T01:07:13;14.60;99.90
22471;DHT22;11402;51.374;6.594;2023-06-05T01:09:42;14.60;99.90
22471;DHT22;11402;51.374;6.594;2023-06-05T01:14:44;14.60;99.90
22471;DHT22;11402;51.374;6.594;2023-06-05T01:17:12;14.50;99.90
22471;DHT22;11402;51.374;6.594;2023-06-05T01:19:38;14.40;99.90
22471;DHT22;11402;51.374;6.594;2023-06-05T01:22:04;14.40;99.90
22471;DHT22;11402;51.374;6.594;2023-06-05T01:24:31;14.40;99.90
22471;DHT22;11402;51.374;6.594;2023-06-05T01:27:28;14.40;99.90
22471;DHT22;11402;51.374;6.594;2023-06-05T01:30:03;14.40;99.90
22471;DHT22;11402;51.374;6.594;2023-06-05T01:32:43;14.40;99.90
22471;DHT22;11402;51.374;6.594;2023-06-05T01:37:44;14.30;99.90
22471;DHT22;11402;51.374;6.594;2023-06-05T01:40:15;14.30;99.90
22471;DHT22;11402;51.374;6.594;2023-06-05T01:42:41;14.20;99.90
22471;DHT22;11402;51.374;6.594;2023-06-05T01:45:08;14.10;99.90
22471;DHT22;11402;51.374;6.594;2023-06-05T01:47:38;14.10;99.90
22471;DHT22;11402;51.374;6.594;2023-06-05T01:50:06;14.40;99.90
22471;DHT22;11402;51.374;6.594;2023-06-05T01:52:33;14.10;99.90
22471;DHT22;11402;51.374;6.594;2023-06-05T01:55:00;14.10;99.90
22471;DHT22;11402;51.374;6.594;2023-06-05T01:57:30;14.20;99.90
22471;DHT22;11402;51.374;6.594;2023-06-05T01:59:59;14.00;99.90
22471;DHT22;11402;51.374;6.594;2023-06-05T02:02:26;14.10;99.90
22471;DHT22;11402;51.374;6.594;2023-06-05T02:04:54;14.30;99.90
22471;DHT22;11402;51.374;6.594;2023-06-05T02:07:20;14.00;99.90
22471;DHT22;11402;51.374;6.594;2023-06-05T02:09:47;14.20;99.90
22471;DHT22;11402;51.374;6.594;2023-06-05T02:12:13;14.00;99.90
22471;DHT22;11402;51.374;6.594;2023-06-05T02:14:41;13.90;99.90
22471;DHT22;11402;51.374;6.594;2023-06-05T02:17:10;13.90;99.90
22471;DHT22;11402;51.374;6.594;2023-06-05T02:19:39;13.90;99.90
22471;DHT22;11402;51.374;6.594;2023-06-05T02:22:04;13.90;99.90
22471;DHT22;11402;51.374;6.594;2023-06-05T02:24:30;13.80;99.90
22471;DHT22;11402;51.374;6.594;2023-06-05T02:26:56;13.60;99.90
22471;DHT22;11402;51.374;6.594;2023-06-05T02:29:22;13.60;99.90
22471;DHT22;11402;51.374;6.594;2023-06-05T02:31:48;13.50;99.90
22471;DHT22;11402;51.374;6.594;2023-06-05T02:34:14;13.50;99.90
22471;DHT22;11402;51.374;6.594;2023-06-05T02:36:42;13.50;99.90
22471;DHT22;11402;51.374;6.594;2023-06-05T02:39:11;13.50;99.90
22471;DHT22;11402;51.374;6.594;2023-06-05T02:41:37;13.40;99.90
22471;DHT22;11402;51.374;6.594;2023-06-05T02:44:03;13.40;99.90
22471;DHT22;11402;51.374;6.594;2023-06-05T02:46:28;13.40;99.90
22471;DHT22;11402;51.374;6.594;2023-06-05T02:48:54;13.50;99.90
22471;DHT22;11402;51.374;6.594;2023-06-05T02:51:20;13.50;99.90
22471;DHT22;11402;51.374;6.594;2023-06-05T02:53:45;13.40;99.90
22471;DHT22;11402;51.374;6.594;2023-06-05T02:56:11;13.30;99.90
22471;DHT22;11402;51.374;6.594;2023-06-05T02:58:38;13.20;99.90
22471;DHT22;11402;51.374;6.594;2023-06-05T03:01:05;13.30;99.90
22471;DHT22;11402;51.374;6.594;2023-06-05T03:03:34;13.20;99.90
22471;DHT22;11402;51.374;6.594;2023-06-05T03:06:00;13.30;99.90
22471;DHT22;11402;51.374;6.594;2023-06-05T03:08:33;13.30;99.90
22471;DHT22;11402;51.374;6.594;2023-06-05T03:11:03;13.30;99.90
22471;DHT22;11402;51.374;6.594;2023-06-05T03:13:30;13.20;99.90
22471;DHT22;11402;51.374;6.594;2023-06-05T03:15:56;13.20;99.90
22471;DHT22;11402;51.374;6.594;2023-06-05T03:18:25;13.10;99.90
22471;DHT22;11402;51.374;6.594;2023-06-05T03:20:52;13.10;99.90
22471;DHT22;11402;51.374;6.594;2023-06-05T03:23:25;13.10;99.90
22471;DHT22;11402;51.374;6.594;2023-06-05T03:25:53;13.10;99.90
22471;DHT22;11402;51.374;6.594;2023-06-05T03:28:21;13.00;99.90
22471;DHT22;11402;51.374;6.594;2023-06-05T03:30:47;13.00;99.90
22471;DHT22;11402;51.374;6.594;2023-06-05T03:33:14;13.20;99.90
22471;DHT22;11402;51.374;6.594;2023-06-05T03:35:40;12.90;99.90
22471;DHT22;11402;51.374;6.594;2023-06-05T03:38:08;12.90;99.90
22471;DHT22;11402;51.374;6.594;2023-06-05T03:40:34;13.00;99.90
22471;DHT22;11402;51.374;6.594;2023-06-05T03:42:59;13.00;99.90
22471;DHT22;11402;51.374;6.594;2023-06-05T03:45:25;13.20;99.90
22471;DHT22;11402;51.374;6.594;2023-06-05T03:47:52;13.00;99.90
22471;DHT22;11402;51.374;6.594;2023-06-05T03:50:20;13.10;99.90
22471;DHT22;11402;51.374;6.594;2023-06-05T03:52:46;13.00;99.90
22471;DHT22;11402;51.374;6.594;2023-06-05T03:55:20;12.90;99.90
22471;DHT22;11402;51.374;6.594;2023-06-05T03:57:47;12.80;99.90
22471;DHT22;11402;51.374;6.594;2023-06-05T04:00:13;12.80;99.90
22471;DHT22;11402;51.374;6.594;2023-06-05T04:02:40;12.80;99.90
22471;DHT22;11402;51.374;6.594;2023-06-05T04:05:06;12.80;99.90
22471;DHT22;11402;51.374;6.594;2023-06-05T04:07:32;13.00;99.90
22471;DHT22;11402;51.374;6.594;2023-06-05T04:09:57;13.00;99.90
22471;DHT22;11402;51.374;6.594;2023-06-05T04:12:23;12.90;99.90
22471;DHT22;11402;51.374;6.594;2023-06-05T04:14:48;12.80;99.90
22471;DHT22;11402;51.374;6.594;2023-06-05T04:17:14;12.70;99.90
22471;DHT22;11402;51.374;6.594;2023-06-05T04:19:40;12.80;99.90
22471;DHT22;11402;51.374;6.594;2023-06-05T04:22:06;12.70;99.90
22471;DHT22;11402;51.374;6.594;2023-06-05T04:24:31;12.90;99.90
22471;DHT22;11402;51.374;6.594;2023-06-05T04:26:57;13.00;99.90
22471;DHT22;11402;51.374;6.594;2023-06-05T04:29:26;13.10;99.90
22471;DHT22;11402;51.374;6.594;2023-06-05T04:31:52;13.00;99.90
22471;DHT22;11402;51.374;6.594;2023-06-05T04:34:17;13.10;99.90
22471;DHT22;11402;51.374;6.594;2023-06-05T04:36:43;12.90;99.90
22471;DHT22;11402;51.374;6.594;2023-06-05T04:39:09;13.00;99.90
22471;DHT22;11402;51.374;6.594;2023-06-05T04:41:42;13.20;99.90
22471;DHT22;11402;51.374;6.594;2023-06-05T04:44:14;13.30;99.90
22471;DHT22;11402;51.374;6.594;2023-06-05T04:46:45;13.20;99.90
22471;DHT22;11402;51.374;6.594;2023-06-05T04:49:12;13.10;99.90
22471;DHT22;11402;51.374;6.594;2023-06-05T04:51:37;13.20;99.90
22471;DHT22;11402;51.374;6.594;2023-06-05T04:54:03;13.20;99.90
22471;DHT22;11402;51.374;6.594;2023-06-05T04:56:30;13.20;99.90
22471;DHT22;11402;51.374;6.594;2023-06-05T04:58:58;13.20;99.90
22471;DHT22;11402;51.374;6.594;2023-06-05T05:01:24;13.30;99.90
22471;DHT22;11402;51.374;6.594;2023-06-05T05:03:50;13.20;99.90
22471;DHT22;11402;51.374;6.594;2023-06-05T05:06:17;13.30;99.90
22471;DHT22;11402;51.374;6.594;2023-06-05T05:08:45;13.20;99.90
22471;DHT22;11402;51.374;6.594;2023-06-05T05:11:14;13.30;99.90
22471;DHT22;11402;51.374;6.594;2023-06-05T05:13:40;13.50;99.90
22471;DHT22;11402;51.374;6.594;2023-06-05T05:16:05;13.50;99.90
22471;DHT22;11402;51.374;6.594;2023-06-05T05:18:33;13.50;99.90
22471;DHT22;11402;51.374;6.594;2023-06-05T05:20:59;13.50;99.90
22471;DHT22;11402;51.374;6.594;2023-06-05T05:23:25;13.50;99.90
22471;DHT22;11402;51.374;6.594;2023-06-05T05:25:51;13.70;99.90
22471;DHT22;11402;51.374;6.594;2023-06-05T05:28:16;13.80;99.90
22471;DHT22;11402;51.374;6.594;2023-06-05T05:30:42;14.10;99.90
22471;DHT22;11402;51.374;6.594;2023-06-05T05:33:07;13.90;99.90
22471;DHT22;11402;51.374;6.594;2023-06-05T05:35:33;13.90;99.90
22471;DHT22;11402;51.374;6.594;2023-06-05T05:37:58;13.90;99.90
22471;DHT22;11402;51.374;6.594;2023-06-05T05:40:24;14.10;99.90
22471;DHT22;11402;51.374;6.594;2023-06-05T05:42:50;14.20;99.90
22471;DHT22;11402;51.374;6.594;2023-06-05T05:45:15;14.30;99.90
22471;DHT22;11402;51.374;6.594;2023-06-05T05:47:41;14.20;99.90
22471;DHT22;11402;51.374;6.594;2023-06-05T05:50:07;14.30;99.90
22471;DHT22;11402;51.374;6.594;2023-06-05T05:52:33;14.30;99.90
22471;DHT22;11402;51.374;6.594;2023-06-05T05:54:58;14.70;99.90
22471;DHT22;11402;51.374;6.594;2023-06-05T05:57:25;14.70;99.90
22471;DHT22;11402;51.374;6.594;2023-06-05T05:59:51;14.80;99.90
22471;DHT22;11402;51.374;6.594;2023-06-05T06:02:16;14.80;99.90
22471;DHT22;11402;51.374;6.594;2023-06-05T06:04:42;15.20;99.90
22471;DHT22;11402;51.374;6.594;2023-06-05T06:07:09;14.90;99.90
22471;DHT22;11402;51.374;6.594;2023-06-05T06:09:35;15.10;99.90
22471;DHT22;11402;51.374;6.594;2023-06-05T06:12:01;15.20;99.90
22471;DHT22;11402;51.374;6.594;2023-06-05T06:14:34;15.10;99.90
22471;DHT22;11402;51.374;6.594;2023-06-05T06:17:00;15.10;99.90
22471;DHT22;11402;51.374;6.594;2023-06-05T06:19:27;15.00;99.90
22471;DHT22;11402;51.374;6.594;2023-06-05T06:21:53;15.20;99.90
22471;DHT22;11402;51.374;6.594;2023-06-05T06:24:19;15.20;99.90
22471;DHT22;11402;51.374;6.594;2023-06-05T06:26:50;15.20;99.90
22471;DHT22;11402;51.374;6.594;2023-06-05T06:29:20;15.10;99.90
22471;DHT22;11402;51.374;6.594;2023-06-05T06:31:49;15.40;99.90
22471;DHT22;11402;51.374;6.594;2023-06-05T06:34:14;15.40;99.90
22471;DHT22;11402;51.374;6.594;2023-06-05T06:36:40;15.60;99.90
22471;DHT22;11402;51.374;6.594;2023-06-05T06:39:11;15.60;99.90
22471;DHT22;11402;51.374;6.594;2023-06-05T06:41:38;15.80;99.90
22471;DHT22;11402;51.374;6.594;2023-06-05T06:44:04;15.90;99.90
22471;DHT22;11402;51.374;6.594;2023-06-05T06:46:31;16.10;99.90
22471;DHT22;11402;51.374;6.594;2023-06-05T06:48:56;15.90;99.90
22471;DHT22;11402;51.374;6.594;2023-06-05T06:51:22;15.90;99.90
22471;DHT22;11402;51.374;6.594;2023-06-05T06:53:48;15.80;99.90
22471;DHT22;11402;51.374;6.594;2023-06-05T06:56:14;15.70;99.90
22471;DHT22;11402;51.374;6.594;2023-06-05T06:58:44;15.80;99.90
22471;DHT22;11402;51.374;6.594;2023-06-05T07:01:10;16.10;99.90
22471;DHT22;11402;51.374;6.594;2023-06-05T07:03:37;16.10;99.90
22471;DHT22;11402;51.374;6.594;2023-06-05T07:06:03;16.30;99.90
22471;DHT22;11402;51.374;6.594;2023-06-05T07:08:29;16.20;99.90
22471;DHT22;11402;51.374;6.594;2023-06-05T07:10:55;16.40;99.90
22471;DHT22;11402;51.374;6.594;2023-06-05T07:13:21;16.50;99.90
22471;DHT22;11402;51.374;6.594;2023-06-05T07:15:47;16.70;99.90
22471;DHT22;11402;51.374;6.594;2023-06-05T07:18:13;16.60;99.90
22471;DHT22;11402;51.374;6.594;2023-06-05T07:20:38;16.60;99.90
22471;DHT22;11402;51.374;6.594;2023-06-05T07:23:04;16.80;99.90
22471;DHT22;11402;51.374;6.594;2023-06-05T07:25:29;16.70;99.90
22471;DHT22;11402;51.374;6.594;2023-06-05T07:27:55;16.50;99.90
22471;DHT22;11402;51.374;6.594;2023-06-05T07:30:21;16.80;99.90
22471;DHT22;11402;51.374;6.594;2023-06-05T07:32:47;16.80;99.90
22471;DHT22;11402;51.374;6.594;2023-06-05T07:35:12;16.80;99.90
22471;DHT22;11402;51.374;6.594;2023-06-05T07:37:39;16.70;99.90
22471;DHT22;11402;51.374;6.594;2023-06-05T07:40:06;16.80;99.90
22471;DHT22;11402;51.374;6.594;2023-06-05T07:42:31;17.00;99.90
22471;DHT22;11402;51.374;6.594;2023-06-05T07:44:57;17.30;99.90
22471;DHT22;11402;51.374;6.594;2023-06-05T07:47:23;17.10;99.90
22471;DHT22;11402;51.374;6.594;2023-06-05T07:50:02;17.20;99.90
22471;DHT22;11402;51.374;6.594;2023-06-05T07:52:32;17.40;99.90
22471;DHT22;11402;51.374;6.594;2023-06-05T07:54:58;17.40;99.90
22471;DHT22;11402;51.374;6.594;2023-06-05T07:57:24;17.40;99.90
22471;DHT22;11402;51.374;6.594;2023-06-05T07:59:50;17.40;99.90
22471;DHT22;11402;51.374;6.594;2023-06-05T08:02:20;17.40;99.90
22471;DHT22;11402;51.374;6.594;2023-06-05T08:04:46;17.30;99.90
22471;DHT22;11402;51.374;6.594;2023-06-05T08:07:12;17.60;99.90
22471;DHT22;11402;51.374;6.594;2023-06-05T08:09:38;17.50;99.90
22471;DHT22;11402;51.374;6.594;2023-06-05T08:12:04;17.60;99.90
22471;DHT22;11402;51.374;6.594;2023-06-05T08:14:30;17.80;99.90
22471;DHT22;11402;51.374;6.594;2023-06-05T08:16:55;18.00;99.90
22471;DHT22;11402;51.374;6.594;2023-06-05T08:19:21;17.70;99.90
22471;DHT22;11402;51.374;6.594;2023-06-05T08:21:51;17.90;99.90
22471;DHT22;11402;51.374;6.594;2023-06-05T08:24:17;18.10;99.90
22471;DHT22;11402;51.374;6.594;2023-06-05T08:26:43;18.30;99.90
22471;DHT22;11402;51.374;6.594;2023-06-05T08:29:08;18.20;99.90
22471;DHT22;11402;51.374;6.594;2023-06-05T08:31:34;18.10;99.90
22471;DHT22;11402;51.374;6.594;2023-06-05T08:34:02;18.30;99.90
22471;DHT22;11402;51.374;6.594;2023-06-05T08:36:27;18.60;99.90
22471;DHT22;11402;51.374;6.594;2023-06-05T08:38:53;18.30;99.90
22471;DHT22;11402;51.374;6.594;2023-06-05T08:41:19;18.50;99.90
22471;DHT22;11402;51.374;6.594;2023-06-05T08:43:45;18.80;99.90
22471;DHT22;11402;51.374;6.594;2023-06-05T08:46:11;18.90;99.90
22471;DHT22;11402;51.374;6.594;2023-06-05T08:48:44;18.80;99.90
22471;DHT22;11402;51.374;6.594;2023-06-05T08:51:11;19.20;99.90
22471;DHT22;11402;51.374;6.594;2023-06-05T08:53:39;19.00;99.90
22471;DHT22;11402;51.374;6.594;2023-06-05T08:56:06;19.20;99.90
22471;DHT22;11402;51.374;6.594;2023-06-05T08:58:32;19.20;99.90
22471;DHT22;11402;51.374;6.594;2023-06-05T09:00:59;19.30;99.90
22471;DHT22;11402;51.374;6.594;2023-06-05T09:03:25;19.10;99.90
22471;DHT22;11402;51.374;6.594;2023-06-05T09:05:52;19.30;99.90
22471;DHT22;11402;51.374;6.594;2023-06-05T09:08:19;19.40;99.90
22471;DHT22;11402;51.374;6.594;2023-06-05T09:10:53;19.80;99.90
22471;DHT22;11402;51.374;6.594;2023-06-05T09:13:18;19.30;99.90
22471;DHT22;11402;51.374;6.594;2023-06-05T09:15:50;19.30;99.90
22471;DHT22;11402;51.374;6.594;2023-06-05T09:18:16;19.30;99.90
22471;DHT22;11402;51.374;6.594;2023-06-05T09:20:43;20.90;99.90
22471;DHT22;11402;51.374;6.594;2023-06-05T09:23:29;19.40;99.90
22471;DHT22;11402;51.374;6.594;2023-06-05T09:25:57;19.60;99.90
22471;DHT22;11402;51.374;6.594;2023-06-05T09:28:24;17.50;99.90
22471;DHT22;11402;51.374;6.594;2023-06-05T09:30:58;19.70;99.90
22471;DHT22;11402;51.374;6.594;2023-06-05T09:33:25;19.90;99.90
22471;DHT22;11402;51.374;6.594;2023-06-05T09:36:04;19.90;99.90
22471;DHT22;11402;51.374;6.594;2023-06-05T09:38:30;19.80;99.90
22471;DHT22;11402;51.374;6.594;2023-06-05T09:41:07;20.20;99.90
22471;DHT22;11402;51.374;6.594;2023-06-05T09:43:34;20.30;99.90
22471;DHT22;11402;51.374;6.594;2023-06-05T09:46:06;20.40;99.90
22471;DHT22;11402;51.374;6.594;2023-06-05T09:48:32;20.40;99.90
22471;DHT22;11402;51.374;6.594;2023-06-05T09:51:09;20.40;99.90
22471;DHT22;11402;51.374;6.594;2023-06-05T09:53:44;20.60;99.90
22471;DHT22;11402;51.374;6.594;2023-06-05T09:56:15;20.60;99.90
22471;DHT22;11402;51.374;6.594;2023-06-05T09:58:51;20.60;99.90
22471;DHT22;11402;51.374;6.594;2023-06-05T10:01:19;20.40;99.90
22471;DHT22;11402;51.374;6.594;2023-06-05T10:06:22;20.80;99.90
22471;DHT22;11402;51.374;6.594;2023-06-05T10:08:50;20.90;99.90
22471;DHT22;11402;51.374;6.594;2023-06-05T10:11:21;21.00;99.90
22471;DHT22;11402;51.374;6.594;2023-06-05T10:13:48;21.10;99.90
22471;DHT22;11402;51.374;6.594;2023-06-05T10:16:16;21.00;99.90
22471;DHT22;11402;51.374;6.594;2023-06-05T10:18:49;21.10;99.90
22471;DHT22;11402;51.374;6.594;2023-06-05T10:21:15;21.10;99.90
22471;DHT22;11402;51.374;6.594;2023-06-05T10:23:48;21.10;99.90
22471;DHT22;11402;51.374;6.594;2023-06-05T10:40:36;21.30;99.90
22471;DHT22;11402;51.374;6.594;2023-06-05T10:43:24;21.60;99.90
22471;DHT22;11402;51.374;6.594;2023-06-05T10:45:50;21.70;99.90
22471;DHT22;11402;51.374;6.594;2023-06-05T10:48:16;21.50;99.90
22471;DHT22;11402;51.374;6.594;2023-06-05T10:50:43;21.60;99.90
22471;DHT22;11402;51.374;6.594;2023-06-05T10:53:41;21.60;99.90
22471;DHT22;11402;51.374;6.594;2023-06-05T10:56:07;21.90;99.90
22471;DHT22;11402;51.374;6.594;2023-06-05T10:58:32;22.00;99.90
22471;DHT22;11402;51.374;6.594;2023-06-05T11:03:59;22.00;99.90
22471;DHT22;11402;51.374;6.594;2023-06-05T11:06:26;22.30;99.90
22471;DHT22;11402;51.374;6.594;2023-06-05T11:14:42;22.10;99.90
22471;DHT22;11402;51.374;6.594;2023-06-05T11:17:34;22.20;99.90
22471;DHT22;11402;51.374;6.594;2023-06-05T11:20:04;22.20;99.90
22471;DHT22;11402;51.374;6.594;2023-06-05T11:25:26;21.90;99.90
22471;DHT22;11402;51.374;6.594;2023-06-05T11:27:55;22.10;99.90
22471;DHT22;11402;51.374;6.594;2023-06-05T11:30:28;22.20;99.90
22471;DHT22;11402;51.374;6.594;2023-06-05T11:33:05;22.40;99.90
22471;DHT22;11402;51.374;6.594;2023-06-05T11:35:31;22.50;99.90
22471;DHT22;11402;51.374;6.594;2023-06-05T11:38:11;22.40;99.90
22471;DHT22;11402;51.374;6.594;2023-06-05T11:40:38;22.40;99.90
22471;DHT22;11402;51.374;6.594;2023-06-05T11:43:06;22.60;99.90
22471;DHT22;11402;51.374;6.594;2023-06-05T11:45:48;22.50;99.90
22471;DHT22;11402;51.374;6.594;2023-06-05T11:48:14;22.60;99.90
22471;DHT22;11402;51.374;6.594;2023-06-05T11:50:52;22.60;99.90
22471;DHT22;11402;51.374;6.594;2023-06-05T11:53:19;22.60;99.90
22471;DHT22;11402;51.374;6.594;2023-06-05T11:55:45;22.80;99.90
22471;DHT22;11402;51.374;6.594;2023-06-05T11:58:25;22.70;99.90
22471;DHT22;11402;51.374;6.594;2023-06-05T12:00:51;22.90;99.90
22471;DHT22;11402;51.374;6.594;2023-06-05T12:03:18;23.10;99.90
22471;DHT22;11402;51.374;6.594;2023-06-05T12:05:45;23.10;95.20
22471;DHT22;11402;51.374;6.594;2023-06-05T12:08:29;23.00;99.90
22471;DHT22;11402;51.374;6.594;2023-06-05T12:10:57;23.00;99.90
22471;DHT22;11402;51.374;6.594;2023-06-05T12:13:24;23.10;99.90
22471;DHT22;11402;51.374;6.594;2023-06-05T12:16:08;22.80;99.90
22471;DHT22;11402;51.374;6.594;2023-06-05T12:18:34;23.10;98.00
22471;DHT22;11402;51.374;6.594;2023-06-05T12:21:01;23.10;90.40
22471;DHT22;11402;51.374;6.594;2023-06-05T12:23:29;23.00;91.30
22471;DHT22;11402;51.374;6.594;2023-06-05T12:26:03;23.20;88.80
22471;DHT22;11402;51.374;6.594;2023-06-05T12:28:30;23.10;89.70
22471;DHT22;11402;51.374;6.594;2023-06-05T12:30:57;23.20;82.60
22471;DHT22;11402;51.374;6.594;2023-06-05T12:33:23;22.90;82.90
22471;DHT22;11402;51.374;6.594;2023-06-05T12:36:07;23.20;84.40
22471;DHT22;11402;51.374;6.594;2023-06-05T12:38:42;23.20;81.50
22471;DHT22;11402;51.374;6.594;2023-06-05T12:41:08;23.30;78.20
22471;DHT22;11402;51.374;6.594;2023-06-05T12:43:34;23.30;80.50
22471;DHT22;11402;51.374;6.594;2023-06-05T12:46:00;23.20;82.70
22471;DHT22;11402;51.374;6.594;2023-06-05T12:48:26;23.40;81.40
22471;DHT22;11402;51.374;6.594;2023-06-05T12:50:51;23.40;83.70
22471;DHT22;11402;51.374;6.594;2023-06-05T12:53:19;23.40;74.30
22471;DHT22;11402;51.374;6.594;2023-06-05T12:55:45;23.20;76.80
22471;DHT22;11402;51.374;6.594;2023-06-05T12:58:10;23.20;75.00
22471;DHT22;11402;51.374;6.594;2023-06-05T13:00:36;23.40;78.60
22471;DHT22;11402;51.374;6.594;2023-06-05T13:03:02;23.50;77.30
22471;DHT22;11402;51.374;6.594;2023-06-05T13:05:32;23.60;72.10
22471;DHT22;11402;51.374;6.594;2023-06-05T13:07:58;23.50;66.70
22471;DHT22;11402;51.374;6.594;2023-06-05T13:10:24;23.50;65.10
22471;DHT22;11402;51.374;6.594;2023-06-05T13:12:50;23.60;68.70
22471;DHT22;11402;51.374;6.594;2023-06-05T13:15:15;23.60;69.60
22471;DHT22;11402;51.374;6.594;2023-06-05T13:17:41;23.70;68.80
22471;DHT22;11402;51.374;6.594;2023-06-05T13:20:07;23.80;65.00
22471;DHT22;11402;51.374;6.594;2023-06-05T13:22:40;23.60;65.80
22471;DHT22;11402;51.374;6.594;2023-06-05T13:25:07;23.50;61.90
22471;DHT22;11402;51.374;6.594;2023-06-05T13:27:33;23.60;68.70
22471;DHT22;11402;51.374;6.594;2023-06-05T13:29:59;23.60;64.00
22471;DHT22;11402;51.374;6.594;2023-06-05T13:32:25;23.70;67.30
22471;DHT22;11402;51.374;6.594;2023-06-05T13:34:51;23.60;63.30
22471;DHT22;11402;51.374;6.594;2023-06-05T13:37:16;23.60;68.00
22471;DHT22;11402;51.374;6.594;2023-06-05T13:39:42;23.70;64.40
22471;DHT22;11402;51.374;6.594;2023-06-05T13:42:08;23.60;62.50
22471;DHT22;11402;51.374;6.594;2023-06-05T13:44:34;23.70;66.80
22471;DHT22;11402;51.374;6.594;2023-06-05T13:47:00;23.80;59.70
22471;DHT22;11402;51.374;6.594;2023-06-05T13:49:29;23.90;62.50
22471;DHT22;11402;51.374;6.594;2023-06-05T13:51:55;23.80;56.70
22471;DHT22;11402;51.374;6.594;2023-06-05T13:54:20;23.70;57.20
22471;DHT22;11402;51.374;6.594;2023-06-05T13:56:46;23.70;56.70
22471;DHT22;11402;51.374;6.594;2023-06-05T13:59:12;23.80;58.40
22471;DHT22;11402;51.374;6.594;2023-06-05T14:01:37;23.90;61.70
22471;DHT22;11402;51.374;6.594;2023-06-05T14:04:03;23.80;58.40
22471;DHT22;11402;51.374;6.594;2023-06-05T14:06:28;23.90;60.20
22471;DHT22;11402;51.374;6.594;2023-06-05T14:08:54;24.10;59.70
22471;DHT22;11402;51.374;6.594;2023-06-05T14:11:19;24.10;60.40
22471;DHT22;11402;51.374;6.594;2023-06-05T14:13:45;24.00;60.30
22471;DHT22;11402;51.374;6.594;2023-06-05T14:16:11;23.90;61.90
22471;DHT22;11402;51.374;6.594;2023-06-05T14:18:37;24.20;61.00
22471;DHT22;11402;51.374;6.594;2023-06-05T14:21:03;24.10;59.00
22471;DHT22;11402;51.374;6.594;2023-06-05T14:23:28;24.00;59.60
22471;DHT22;11402;51.374;6.594;2023-06-05T14:25:54;23.90;58.60
22471;DHT22;11402;51.374;6.594;2023-06-05T14:28:19;24.10;59.30
22471;DHT22;11402;51.374;6.594;2023-06-05T14:30:46;24.00;58.50
22471;DHT22;11402;51.374;6.594;2023-06-05T14:33:12;24.20;61.80
22471;DHT22;11402;51.374;6.594;2023-06-05T14:35:38;24.10;56.70
22471;DHT22;11402;51.374;6.594;2023-06-05T14:38:03;24.00;58.70
22471;DHT22;11402;51.374;6.594;2023-06-05T14:40:29;24.00;57.00
22471;DHT22;11402;51.374;6.594;2023-06-05T14:42:56;24.00;58.60
22471;DHT22;11402;51.374;6.594;2023-06-05T14:45:22;24.00;58.40
22471;DHT22;11402;51.374;6.594;2023-06-05T14:47:47;24.00;58.70
22471;DHT22;11402;51.374;6.594;2023-06-05T14:50:13;23.90;57.60
22471;DHT22;11402;51.374;6.594;2023-06-05T14:52:39;23.90;59.70
22471;DHT22;11402;51.374;6.594;2023-06-05T14:55:05;24.00;61.10
22471;DHT22;11402;51.374;6.594;2023-06-05T14:57:30;24.10;59.80
22471;DHT22;11402;51.374;6.594;2023-06-05T14:59:56;24.20;60.30
22471;DHT22;11402;51.374;6.594;2023-06-05T15:02:21;24.10;59.30
22471;DHT22;11402;51.374;6.594;2023-06-05T15:04:50;24.10;59.50
22471;DHT22;11402;51.374;6.594;2023-06-05T15:07:18;24.00;58.80
22471;DHT22;11402;51.374;6.594;2023-06-05T15:09:46;24.00;58.40
22471;DHT22;11402;51.374;6.594;2023-06-05T15:12:11;24.00;58.30
22471;DHT22;11402;51.374;6.594;2023-06-05T15:14:37;24.00;58.60
22471;DHT22;11402;51.374;6.594;2023-06-05T15:17:03;24.10;58.50
22471;DHT22;11402;51.374;6.594;2023-06-05T15:19:28;24.00;57.60
22471;DHT22;11402;51.374;6.594;2023-06-05T15:21:54;24.10;59.40
22471;DHT22;11402;51.374;6.594;2023-06-05T15:24:20;24.10;60.00
22471;DHT22;11402;51.374;6.594;2023-06-05T15:26:45;24.20;58.10
22471;DHT22;11402;51.374;6.594;2023-06-05T15:29:11;24.20;57.80
22471;DHT22;11402;51.374;6.594;2023-06-05T15:31:36;24.20;58.40
22471;DHT22;11402;51.374;6.594;2023-06-05T15:34:02;24.20;58.20
22471;DHT22;11402;51.374;6.594;2023-06-05T15:36:28;24.00;54.20
22471;DHT22;11402;51.374;6.594;2023-06-05T15:38:53;24.00;57.20
22471;DHT22;11402;51.374;6.594;2023-06-05T15:41:19;24.10;58.00
22471;DHT22;11402;51.374;6.594;2023-06-05T15:43:45;24.00;57.70
22471;DHT22;11402;51.374;6.594;2023-06-05T15:46:10;24.10;58.80
22471;DHT22;11402;51.374;6.594;2023-06-05T15:48:36;24.10;58.20
22471;DHT22;11402;51.374;6.594;2023-06-05T15:51:02;24.20;59.30
22471;DHT22;11402;51.374;6.594;2023-06-05T15:53:29;24.10;59.40
22471;DHT22;11402;51.374;6.594;2023-06-05T15:55:55;24.10;59.20
22471;DHT22;11402;51.374;6.594;2023-06-05T15:58:23;24.20;59.30
22471;DHT22;11402;51.374;6.594;2023-06-05T16:00:49;24.20;60.10
22471;DHT22;11402;51.374;6.594;2023-06-05T16:03:15;24.10;59.00
22471;DHT22;11402;51.374;6.594;2023-06-05T16:05:42;24.00;57.80